Terminal Aerodrome Forecast
Issued by NWS Cleveland, OH

Home | Current Version | Previous Version | Text Only | Print | Product List | Glossary On
Versions: 1 2 3 4 5 6 7 8 9 10 11 12 13 14
000
FTUS41 KCLE 281120
TAFERI
TAF
KERI 281120Z 2812/2912 06010KT P6SM SCT035 OVC150
     FM281500 05015G25KT P6SM SCT035 OVC050
     FM291000 06012G22KT P6SM SCT025 BKN035=

USA.gov is the U.S. government's official web portal to all federal, state and local government web resources and services.